createdAt,value
2023-02-16T00:01:57.203Z,3.90
2023-02-16T00:05:59.059Z,4.93
2023-02-16T00:10:00.790Z,3.70
2023-02-16T00:14:04.164Z,3.35
2023-02-16T00:18:17.104Z,3.22
2023-02-16T00:22:18.864Z,3.97
2023-02-16T00:26:24.063Z,4.03
2023-02-16T00:30:26.465Z,3.90
2023-02-16T00:34:34.411Z,4.25
2023-02-16T00:38:36.264Z,3.03
2023-02-16T00:42:38.566Z,3.75
2023-02-16T00:46:43.812Z,4.13
2023-02-16T00:50:45.645Z,6.72
2023-02-16T00:54:47.399Z,6.13
2023-02-16T00:58:52.633Z,4.65
2023-02-16T01:02:56.936Z,4.50
2023-02-16T01:07:17.436Z,3.17
2023-02-16T01:11:19.535Z,4.70
2023-02-16T01:15:25.091Z,3.10
2023-02-16T01:19:27.032Z,3.35
2023-02-16T01:23:29.528Z,5.40
2023-02-16T01:27:31.607Z,4.30
2023-02-16T01:31:33.497Z,4.43
2023-02-16T01:35:37.763Z,3.92
2023-02-16T01:39:39.773Z,4.43
2023-02-16T01:43:48.169Z,4.00
2023-02-16T01:47:58.568Z,3.88
2023-02-16T01:52:11.127Z,3.42
2023-02-16T01:56:30.185Z,3.35
2023-02-16T02:00:52.861Z,3.30
2023-02-16T02:05:35.435Z,2.97
2023-02-16T02:09:48.562Z,4.75
2023-02-16T02:14:03.161Z,4.55
2023-02-16T02:18:05.271Z,4.68
2023-02-16T02:22:28.694Z,4.30
2023-02-16T02:26:56.940Z,3.60
2023-02-16T02:31:20.947Z,3.65
2023-02-16T02:35:35.984Z,4.65
2023-02-16T02:40:05.985Z,4.25
2023-02-16T02:44:09.889Z,3.53
2023-02-16T02:48:11.779Z,3.35
2023-02-16T02:52:13.691Z,3.50
2023-02-16T02:56:35.525Z,2.83
2023-02-16T03:00:44.778Z,3.80
2023-02-16T03:04:47.381Z,3.42
2023-02-16T03:08:55.039Z,3.97
2023-02-16T03:12:57.762Z,3.40
2023-02-16T03:17:28.647Z,3.40
2023-02-16T03:21:50.536Z,2.80
2023-02-16T03:26:11.930Z,4.45
2023-02-16T03:30:16.352Z,3.30
2023-02-16T03:34:20.607Z,3.70
2023-02-16T03:38:22.754Z,3.10
2023-02-16T03:42:24.862Z,4.10
2023-02-16T03:46:26.917Z,4.32
2023-02-16T03:50:28.997Z,3.20
2023-02-16T03:54:30.734Z,4.57
2023-02-16T03:58:33.432Z,5.50
2023-02-16T04:02:35.239Z,5.10
2023-02-16T04:06:37.342Z,4.82
2023-02-16T04:10:40.052Z,4.57
2023-02-16T04:14:43.756Z,4.80
2023-02-16T04:18:45.646Z,2.90
2023-02-16T04:22:48.772Z,3.47
2023-02-16T04:26:51.034Z,4.80
2023-02-16T04:30:53.148Z,4.50
2023-02-16T04:34:55.265Z,3.70
2023-02-16T04:38:57.265Z,4.05
2023-02-16T04:42:59.447Z,3.70
2023-02-16T04:47:01.679Z,3.83
2023-02-16T04:51:05.345Z,4.45
2023-02-16T04:55:11.126Z,4.00
2023-02-16T04:59:13.795Z,5.00
2023-02-16T05:03:15.996Z,3.72
2023-02-16T05:07:17.891Z,4.95
2023-02-16T05:11:38.213Z,4.30
2023-02-16T05:15:40.418Z,3.83
2023-02-16T05:19:45.331Z,3.80
2023-02-16T05:23:47.081Z,3.20
2023-02-16T05:27:49.027Z,2.78
2023-02-16T05:31:51.361Z,2.20
2023-02-16T05:35:53.726Z,5.15
2023-02-16T05:39:56.169Z,5.70
2023-02-16T05:44:00.854Z,7.00
2023-02-16T05:48:02.722Z,3.97
2023-02-16T05:52:04.903Z,3.42
2023-02-16T05:56:07.562Z,3.40
2023-02-16T06:00:09.906Z,5.18
2023-02-16T06:04:12.580Z,4.07
2023-02-16T06:08:14.365Z,5.20
2023-02-16T06:12:16.096Z,5.78
2023-02-16T06:16:17.952Z,5.63
2023-02-16T06:20:20.617Z,5.53
2023-02-16T06:24:22.387Z,4.88
2023-02-16T06:28:24.100Z,4.38
2023-02-16T06:32:25.967Z,4.10
2023-02-16T06:36:27.852Z,5.13
2023-02-16T06:40:29.711Z,3.85
2023-02-16T06:44:31.436Z,3.83
2023-02-16T06:48:33.239Z,3.55
2023-02-16T06:52:34.987Z,3.47
2023-02-16T06:56:38.042Z,3.83
2023-02-16T07:00:39.919Z,3.40
2023-02-16T07:04:41.772Z,2.95
2023-02-16T07:08:43.539Z,3.63
2023-02-16T07:12:45.293Z,4.43
2023-02-16T07:16:47.040Z,4.22
2023-02-16T07:20:49.098Z,4.38
2023-02-16T07:24:50.843Z,4.50
2023-02-16T07:28:52.708Z,4.10
2023-02-16T07:32:54.446Z,7.82
2023-02-16T07:36:56.316Z,4.93
2023-02-16T07:40:58.807Z,4.10
2023-02-16T07:45:00.574Z,3.92
2023-02-16T07:49:02.446Z,4.63
2023-02-16T07:53:04.272Z,3.13
2023-02-16T07:57:06.398Z,3.42
2023-02-16T08:01:10.620Z,8.45
2023-02-16T08:05:12.394Z,6.85
2023-02-16T08:09:15.803Z,9.10
2023-02-16T08:13:17.525Z,6.68
2023-02-16T08:17:20.468Z,6.72
2023-02-16T08:21:25.480Z,6.57
2023-02-16T08:25:27.348Z,6.97
2023-02-16T08:29:29.426Z,4.70
2023-02-16T08:33:31.537Z,6.43
2023-02-16T08:37:33.525Z,4.15
2023-02-16T08:41:37.088Z,3.42
2023-02-16T08:45:45.306Z,4.65
2023-02-16T08:49:47.885Z,5.63
2023-02-16T08:53:50.339Z,3.88
2023-02-16T08:57:52.074Z,3.33
2023-02-16T09:01:53.847Z,3.17
2023-02-16T09:05:55.635Z,3.97
2023-02-16T09:09:57.959Z,4.13
2023-02-16T09:13:59.786Z,4.50
2023-02-16T09:18:01.630Z,4.43
2023-02-16T09:22:03.937Z,6.20
2023-02-16T09:26:09.731Z,5.25
2023-02-16T09:30:12.329Z,4.88
2023-02-16T09:34:18.847Z,6.10
2023-02-16T09:38:21.589Z,5.38
2023-02-16T09:42:47.547Z,4.03
2023-02-16T09:46:50.454Z,6.22
2023-02-16T09:50:54.917Z,4.85
2023-02-16T09:54:59.527Z,4.47
2023-02-16T09:59:10.676Z,5.55
2023-02-16T10:03:39.974Z,6.63
2023-02-16T10:07:44.471Z,3.92
2023-02-16T10:11:58.746Z,6.50
2023-02-16T10:16:02.946Z,6.75
2023-02-16T10:20:11.979Z,5.00
2023-02-16T10:24:14.863Z,7.20
2023-02-16T10:28:23.010Z,6.75
2023-02-16T10:32:42.145Z,4.43
2023-02-16T10:37:13.612Z,5.63
2023-02-16T10:41:31.469Z,4.63
2023-02-16T10:46:00.597Z,4.80
2023-02-16T10:50:03.179Z,6.93
2023-02-16T10:54:10.422Z,8.60
2023-02-16T10:58:24.279Z,9.30
2023-02-16T11:02:42.655Z,5.32
2023-02-16T11:07:03.294Z,3.72
2023-02-16T11:11:09.907Z,7.80
2023-02-16T11:15:18.831Z,6.07
2023-02-16T11:19:25.956Z,6.68
2023-02-16T11:23:32.950Z,8.77
2023-02-16T11:27:34.786Z,8.80
2023-02-16T11:31:40.728Z,10.15
2023-02-16T11:35:44.858Z,8.57
2023-02-16T11:39:53.373Z,8.55
2023-02-16T11:43:56.195Z,7.07
2023-02-16T11:48:07.312Z,7.32
2023-02-16T11:52:27.141Z,7.18
2023-02-16T11:56:36.437Z,8.25
2023-02-16T12:00:41.687Z,5.97
2023-02-16T12:04:46.345Z,8.40
2023-02-16T12:09:15.718Z,10.90
2023-02-16T12:13:36.308Z,7.63
2023-02-16T12:18:12.329Z,6.05
2023-02-16T12:22:47.245Z,7.15
2023-02-16T12:26:52.657Z,6.85
2023-02-16T12:30:58.386Z,9.90
2023-02-16T12:35:27.371Z,8.75
2023-02-16T12:39:40.798Z,8.98
2023-02-16T12:43:48.717Z,7.97
2023-02-16T12:47:57.636Z,6.60
2023-02-16T12:52:26.667Z,8.18
2023-02-16T12:56:36.663Z,10.95
2023-02-16T13:00:49.715Z,8.18
2023-02-16T13:05:21.476Z,11.20
2023-02-16T13:09:36.228Z,12.38
2023-02-16T13:13:41.418Z,10.63
2023-02-16T13:17:49.445Z,11.02
2023-02-16T13:21:54.288Z,13.43
2023-02-16T13:26:05.623Z,10.85
2023-02-16T13:30:57.512Z,10.52
2023-02-16T13:35:10.526Z,9.60
2023-02-16T13:39:24.338Z,10.07
2023-02-16T13:43:41.685Z,11.32
2023-02-16T13:51:47.259Z,10.43
2023-02-16T13:55:52.702Z,10.73
2023-02-16T14:00:05.678Z,7.82
2023-02-16T14:04:35.676Z,12.43
2023-02-16T14:08:37.491Z,9.82
2023-02-16T14:12:40.727Z,8.80
2023-02-16T14:16:42.585Z,8.20
2023-02-16T14:20:44.626Z,11.00
2023-02-16T14:25:29.058Z,10.90
2023-02-16T14:29:59.281Z,8.65
2023-02-16T14:34:16.782Z,9.60
2023-02-16T14:38:30.566Z,10.52
2023-02-16T14:42:34.866Z,9.45
2023-02-16T14:46:58.300Z,10.88
2023-02-16T14:51:38.085Z,9.27
2023-02-16T14:55:55.220Z,12.35
2023-02-16T15:00:04.471Z,13.68
2023-02-16T15:04:06.759Z,14.48
2023-02-16T15:08:22.580Z,11.55
2023-02-16T15:12:30.654Z,9.63
2023-02-16T15:16:33.643Z,10.25
2023-02-16T15:20:37.688Z,8.45
2023-02-16T15:24:41.319Z,7.85
2023-02-16T15:28:55.152Z,8.10
2023-02-16T15:33:00.584Z,9.60
2023-02-16T15:37:25.232Z,8.07
2023-02-16T15:41:32.227Z,8.63
2023-02-16T15:49:39.979Z,6.35
2023-02-16T15:53:45.444Z,7.38
2023-02-16T15:57:47.553Z,10.20
2023-02-16T16:01:56.674Z,8.90
2023-02-16T16:06:03.884Z,8.95
2023-02-16T16:10:28.421Z,8.07
2023-02-16T16:14:34.979Z,7.53
2023-02-16T16:18:46.904Z,6.55
2023-02-16T16:22:56.774Z,6.03
2023-02-16T16:27:00.409Z,5.93
2023-02-16T16:31:29.983Z,5.43
2023-02-16T16:35:40.182Z,4.82
2023-02-16T16:39:42.201Z,5.78
2023-02-16T16:43:54.030Z,5.28
2023-02-16T16:47:56.042Z,5.50
2023-02-16T16:51:57.764Z,5.80
2023-02-16T16:56:01.254Z,4.70
2023-02-16T17:00:04.430Z,4.05
2023-02-16T17:04:06.232Z,4.35
2023-02-16T17:08:08.712Z,4.65
2023-02-16T17:12:11.025Z,5.07
2023-02-16T17:16:20.750Z,4.15
2023-02-16T17:20:22.963Z,3.97
2023-02-16T17:24:25.497Z,4.30
2023-02-16T17:28:28.685Z,4.47
2023-02-16T17:32:30.468Z,5.45
2023-02-16T17:36:32.786Z,6.68
2023-02-16T17:40:34.766Z,6.93
2023-02-16T17:44:36.525Z,5.07
2023-02-16T17:48:38.341Z,4.00
2023-02-16T17:52:41.426Z,4.88
2023-02-16T17:56:45.334Z,4.25
2023-02-16T18:00:47.374Z,4.28
2023-02-16T18:04:49.189Z,3.50
2023-02-16T18:08:51.755Z,3.70
2023-02-16T18:12:53.504Z,3.83
2023-02-16T18:16:55.338Z,4.25
2023-02-16T18:20:57.146Z,4.00
2023-02-16T18:24:58.954Z,4.45
2023-02-16T18:29:00.743Z,4.45
2023-02-16T18:33:02.618Z,5.10
2023-02-16T18:37:04.436Z,4.65
2023-02-16T18:41:06.197Z,6.90
2023-02-16T18:45:08.503Z,7.35
2023-02-16T18:49:10.422Z,5.85
2023-02-16T18:53:12.587Z,5.85
2023-02-16T18:57:15.127Z,5.53
2023-02-16T19:01:26.226Z,5.63
2023-02-16T19:05:28.313Z,4.85
2023-02-16T19:09:30.129Z,6.65
2023-02-16T19:13:31.928Z,5.60
2023-02-16T19:17:34.261Z,5.20
2023-02-16T19:21:36.082Z,6.32
2023-02-16T19:25:37.878Z,7.30
2023-02-16T19:29:39.730Z,6.22
2023-02-16T19:33:41.530Z,4.78
2023-02-16T19:37:43.308Z,4.78
2023-02-16T19:41:44.990Z,4.28
2023-02-16T19:45:46.826Z,4.97
2023-02-16T19:49:48.549Z,8.20
2023-02-16T19:53:50.866Z,4.55
2023-02-16T19:57:52.610Z,5.90
2023-02-16T20:01:54.402Z,5.50
2023-02-16T20:05:56.159Z,4.78
2023-02-16T20:09:57.974Z,4.07
2023-02-16T20:14:00.357Z,4.95
2023-02-16T20:18:02.712Z,4.18
2023-02-16T20:22:04.516Z,5.13
2023-02-16T20:26:13.396Z,6.10
2023-02-16T20:30:19.779Z,5.40
2023-02-16T20:34:23.141Z,4.80
2023-02-16T20:38:24.912Z,5.10
2023-02-16T20:42:26.796Z,5.30
2023-02-16T20:46:28.710Z,8.23
2023-02-16T20:50:30.483Z,7.28
2023-02-16T20:54:32.395Z,5.97
2023-02-16T20:58:35.626Z,5.82
2023-02-16T21:02:37.384Z,5.60
2023-02-16T21:06:39.837Z,6.38
2023-02-16T21:10:41.609Z,8.60
2023-02-16T21:14:43.350Z,7.03
2023-02-16T21:18:45.135Z,8.25
2023-02-16T21:22:46.843Z,10.43
2023-02-16T21:26:48.634Z,7.35
2023-02-16T21:30:50.456Z,8.25
2023-02-16T21:34:52.225Z,10.85
2023-02-16T21:38:54.518Z,12.90
2023-02-16T21:42:57.329Z,10.00
2023-02-16T21:46:59.048Z,10.18
2023-02-16T21:51:03.498Z,6.47
2023-02-16T21:55:38.225Z,6.45
2023-02-16T21:59:40.101Z,8.52
2023-02-16T22:03:41.854Z,5.18
2023-02-16T22:07:43.726Z,7.20
2023-02-16T22:11:47.064Z,5.70
2023-02-16T22:15:49.096Z,8.68
2023-02-16T22:19:50.832Z,8.18
2023-02-16T22:23:52.916Z,8.45
2023-02-16T22:27:55.137Z,7.72
2023-02-16T22:31:57.000Z,7.35
2023-02-16T22:35:58.749Z,5.32
2023-02-16T22:40:00.552Z,6.43
2023-02-16T22:44:02.628Z,6.07
2023-02-16T22:48:04.759Z,8.65
2023-02-16T22:52:06.576Z,6.85
2023-02-16T22:56:10.567Z,5.45
2023-02-16T23:00:17.165Z,8.07
2023-02-16T23:04:19.028Z,7.85
2023-02-16T23:08:22.231Z,9.55
2023-02-16T23:12:24.367Z,6.50
2023-02-16T23:16:27.379Z,6.68
2023-02-16T23:20:29.473Z,8.02
2023-02-16T23:24:31.232Z,8.35
2023-02-16T23:28:34.821Z,8.00
2023-02-16T23:32:36.583Z,6.78
2023-02-16T23:36:39.185Z,11.88
2023-02-16T23:40:41.809Z,6.85
2023-02-16T23:44:43.548Z,6.60
2023-02-16T23:48:45.309Z,8.40
2023-02-16T23:52:47.098Z,9.40
2023-02-16T23:56:49.372Z,5.85
